createdAt,value
2023-01-19T00:00:06.571Z,82
2023-01-19T00:10:08.914Z,82
2023-01-19T00:20:10.945Z,82
2023-01-19T00:30:13.186Z,82
2023-01-19T00:40:15.216Z,82
2023-01-19T00:50:16.896Z,83
2023-01-19T01:00:19.218Z,82
2023-01-19T01:10:21.735Z,82
2023-01-19T01:30:25.717Z,82
2023-01-19T01:40:28.231Z,82
2023-01-19T01:50:29.955Z,82
2023-01-19T02:00:32.411Z,82
2023-01-19T02:10:34.277Z,82
2023-01-19T02:20:36.605Z,82
2023-01-19T02:30:38.477Z,82
2023-01-19T02:40:40.200Z,82
2023-01-19T02:50:42.479Z,82
2023-01-19T03:00:44.670Z,82
2023-01-19T03:10:46.725Z,82
2023-01-19T03:20:49.351Z,82
2023-01-19T03:30:51.379Z,82
2023-01-19T03:40:53.458Z,82
2023-01-19T04:00:57.963Z,82
2023-01-19T04:11:00.107Z,82
2023-01-19T04:21:01.891Z,82
2023-01-19T04:31:03.850Z,82
2023-01-19T04:41:05.441Z,84
2023-01-19T04:51:07.355Z,85
2023-01-19T05:01:09.604Z,86
2023-01-19T05:11:11.185Z,87
2023-01-19T05:21:12.997Z,88
2023-01-19T05:31:16.896Z,88
2023-01-19T05:51:20.219Z,88
2023-01-19T06:01:22.661Z,88
2023-01-19T06:11:25.325Z,88
2023-01-19T06:31:29.811Z,89
2023-01-19T06:41:31.940Z,89
2023-01-19T06:51:34.232Z,89
2023-01-19T07:01:36.273Z,89
2023-01-19T07:11:38.867Z,89
2023-01-19T07:21:41.447Z,89
2023-01-19T07:31:43.608Z,90
2023-01-19T07:41:45.192Z,90
2023-01-19T07:51:47.094Z,90
2023-01-19T08:01:49.332Z,90
2023-01-19T08:11:51.397Z,90
2023-01-19T08:21:53.831Z,90
2023-01-19T08:31:56.116Z,90
2023-01-19T08:41:58.183Z,90
2023-01-19T08:52:00.775Z,90
2023-01-19T09:02:02.528Z,90
2023-01-19T09:22:06.731Z,90
2023-01-19T09:32:09.367Z,90
2023-01-19T09:42:11.464Z,90
2023-01-19T09:52:13.655Z,90
2023-01-19T10:02:16.115Z,90
2023-01-19T10:12:19.868Z,90
2023-01-19T10:22:20.563Z,90
2023-01-19T10:32:22.803Z,90
2023-01-19T10:42:25.084Z,90
2023-01-19T10:52:26.763Z,90
2023-01-19T11:02:29.612Z,90
2023-01-19T11:12:31.769Z,90
2023-01-19T11:22:33.921Z,90
2023-01-19T11:32:35.578Z,90
2023-01-19T11:42:37.813Z,89
2023-01-19T11:52:41.225Z,89
2023-01-19T12:12:43.848Z,89
2023-01-19T12:22:45.676Z,89
2023-01-19T12:32:47.616Z,89
2023-01-19T12:42:49.363Z,89
2023-01-19T12:52:51.911Z,89
2023-01-19T13:02:54.512Z,89
2023-01-19T13:12:56.333Z,88
2023-01-19T13:22:58.328Z,88
2023-01-19T13:33:00.214Z,88
2023-01-19T13:43:02.020Z,88
2023-01-19T14:03:06.782Z,88
2023-01-19T14:13:08.569Z,88
2023-01-19T14:23:10.373Z,88
2023-01-19T14:33:12.320Z,87
2023-01-19T14:43:14.008Z,87
2023-01-19T15:03:17.858Z,87
2023-01-19T15:23:21.810Z,87
2023-01-19T15:33:24.358Z,87
2023-01-19T15:43:26.048Z,87
2023-01-19T15:53:28.252Z,87
2023-01-19T16:03:30.408Z,87
2023-01-19T16:13:32.444Z,87
2023-01-19T16:23:34.760Z,87
2023-01-19T16:33:36.860Z,87
2023-01-19T16:53:41.203Z,87
2023-01-19T17:43:52.123Z,88
2023-01-19T17:53:54.347Z,88
2023-01-19T18:03:56.142Z,88
2023-01-19T18:13:58.419Z,88
2023-01-19T18:24:00.327Z,88
2023-01-19T18:44:03.873Z,87
2023-01-19T18:54:05.685Z,87
2023-01-19T19:04:07.341Z,88
2023-01-19T19:14:09.551Z,88
2023-01-19T19:24:11.967Z,88
2023-01-19T19:34:14.151Z,88
2023-01-19T19:44:16.676Z,88
2023-01-19T19:54:18.373Z,87
2023-01-19T20:04:20.725Z,87
2023-01-19T20:14:22.893Z,87
2023-01-19T20:24:25.300Z,87
2023-01-19T20:34:26.929Z,87
2023-01-19T20:44:28.844Z,87
2023-01-19T20:54:31.300Z,87
2023-01-19T21:14:35.948Z,87
2023-01-19T22:24:59.587Z,87
2023-01-19T22:35:01.669Z,87
2023-01-19T22:45:04.255Z,87
2023-01-19T22:55:06.841Z,87
2023-01-19T23:05:08.688Z,87
2023-01-19T23:15:10.656Z,87
2023-01-19T23:45:17.290Z,87
2023-01-19T23:55:19.658Z,87
